createdAt,value
2019-03-21T00:00:56.593Z,3.47
2019-03-21T00:03:28.037Z,3.38
2019-03-21T00:05:59.404Z,3.39
2019-03-21T00:08:30.800Z,3.38
2019-03-21T00:12:02.135Z,3.41
2019-03-21T00:14:50.070Z,3.36
2019-03-21T00:17:24.880Z,3.17
2019-03-21T00:19:56.301Z,3.22
2019-03-21T00:22:27.643Z,3.22
2019-03-21T00:24:59.035Z,3.16
2019-03-21T00:27:30.362Z,3.18
2019-03-21T00:30:01.737Z,3.23
2019-03-21T00:32:33.057Z,3.18
2019-03-21T00:35:04.657Z,3.14
2019-03-21T00:37:36.006Z,3.06
2019-03-21T00:40:10.467Z,3.12
2019-03-21T00:42:41.865Z,3.15
2019-03-21T00:45:15.336Z,2.98
2019-03-21T00:47:46.922Z,3.00
2019-03-21T00:50:20.034Z,3.05
2019-03-21T00:52:53.324Z,3.02
2019-03-21T00:55:25.073Z,2.99
2019-03-21T00:57:59.667Z,2.97
2019-03-21T01:00:43.969Z,2.96
2019-03-21T01:03:16.222Z,2.84
2019-03-21T01:05:47.860Z,2.86
2019-03-21T01:08:19.294Z,2.92
2019-03-21T01:10:51.583Z,2.83
2019-03-21T01:13:23.446Z,2.74
2019-03-21T01:15:54.804Z,2.78
2019-03-21T01:18:26.313Z,2.77
2019-03-21T01:20:57.705Z,2.80
2019-03-21T01:23:29.306Z,2.83
2019-03-21T01:26:01.251Z,2.76
2019-03-21T01:28:32.700Z,2.77
2019-03-21T01:31:04.134Z,2.78
2019-03-21T01:33:35.638Z,2.62
2019-03-21T01:36:07.048Z,2.51
2019-03-21T01:38:38.472Z,2.57
2019-03-21T01:41:09.937Z,2.59
2019-03-21T01:43:41.456Z,2.44
2019-03-21T01:46:13.632Z,2.46
2019-03-21T01:48:45.148Z,2.48
2019-03-21T01:51:17.488Z,2.45
2019-03-21T01:53:48.904Z,2.39
2019-03-21T01:56:20.442Z,2.42
2019-03-21T01:58:54.671Z,2.35
2019-03-21T02:01:27.391Z,2.37
2019-03-21T02:03:58.806Z,2.39
2019-03-21T02:06:30.267Z,2.45
2019-03-21T02:09:01.880Z,2.36
2019-03-21T02:11:33.407Z,2.31
2019-03-21T02:14:04.934Z,2.26
2019-03-21T02:16:36.553Z,2.23
2019-03-21T02:19:10.947Z,2.31
2019-03-21T02:21:42.921Z,2.31
2019-03-21T02:24:14.521Z,2.33
2019-03-21T02:26:45.979Z,2.32
2019-03-21T02:29:20.580Z,2.26
2019-03-21T02:31:52.078Z,2.15
2019-03-21T02:34:23.795Z,2.14
2019-03-21T02:36:55.236Z,2.15
2019-03-21T02:39:27.720Z,2.13
2019-03-21T02:41:59.145Z,2.17
2019-03-21T02:44:30.648Z,2.09
2019-03-21T02:47:02.117Z,2.09
2019-03-21T02:49:33.862Z,2.19
2019-03-21T02:52:05.629Z,2.17
2019-03-21T02:54:37.693Z,2.11
2019-03-21T02:57:09.216Z,2.16
2019-03-21T02:59:41.245Z,2.19
2019-03-21T03:02:12.868Z,2.15
2019-03-21T03:04:44.485Z,2.00
2019-03-21T03:07:16.722Z,1.92
2019-03-21T03:09:48.347Z,1.89
2019-03-21T03:12:21.695Z,1.91
2019-03-21T03:14:53.129Z,1.88
2019-03-21T03:17:27.796Z,1.95
2019-03-21T03:20:06.999Z,1.99
2019-03-21T03:22:38.859Z,1.97
2019-03-21T03:25:12.213Z,1.99
2019-03-21T03:27:44.034Z,1.95
2019-03-21T03:30:22.897Z,1.91
2019-03-21T03:32:54.570Z,1.94
2019-03-21T03:35:26.414Z,1.92
2019-03-21T03:37:57.879Z,1.81
2019-03-21T03:40:34.054Z,1.86
2019-03-21T03:43:05.645Z,1.73
2019-03-21T03:45:38.563Z,1.75
2019-03-21T03:48:10.429Z,1.72
2019-03-21T03:50:42.816Z,1.84
2019-03-21T03:53:14.341Z,1.79
2019-03-21T03:55:46.020Z,1.90
2019-03-21T03:58:19.005Z,1.96
2019-03-21T04:00:56.189Z,2.00
2019-03-21T04:03:27.854Z,2.05
2019-03-21T04:05:59.498Z,2.04
2019-03-21T04:08:30.959Z,2.01
2019-03-21T04:11:03.188Z,1.94
2019-03-21T04:13:34.677Z,1.93
2019-03-21T04:16:06.362Z,1.88
2019-03-21T04:18:40.348Z,1.92
2019-03-21T04:21:12.101Z,1.96
2019-03-21T04:23:43.470Z,1.94
2019-03-21T04:26:20.964Z,1.99
2019-03-21T04:28:52.817Z,1.98
2019-03-21T04:31:29.243Z,1.92
2019-03-21T04:34:04.902Z,1.90
2019-03-21T04:36:38.120Z,1.90
2019-03-21T04:39:13.382Z,1.89
2019-03-21T04:41:45.590Z,1.85
2019-03-21T04:44:20.384Z,1.90
2019-03-21T04:46:52.081Z,1.92
2019-03-21T04:49:25.114Z,1.92
2019-03-21T04:51:56.825Z,1.96
2019-03-21T04:54:29.166Z,1.92
2019-03-21T04:57:05.040Z,1.92
2019-03-21T04:59:36.963Z,1.91
2019-03-21T05:02:12.019Z,1.90
2019-03-21T05:04:43.518Z,1.90
2019-03-21T05:07:14.959Z,1.89
2019-03-21T05:09:46.871Z,1.87
2019-03-21T05:12:18.397Z,1.89
2019-03-21T05:14:52.533Z,1.89
2019-03-21T05:17:25.444Z,1.85
2019-03-21T05:19:57.415Z,1.84
2019-03-21T05:22:30.913Z,1.86
2019-03-21T05:25:06.697Z,1.85
2019-03-21T05:27:38.620Z,1.85
2019-03-21T05:30:14.959Z,1.83
2019-03-21T05:32:46.946Z,1.80
2019-03-21T05:35:18.320Z,1.69
2019-03-21T05:37:49.851Z,1.60
2019-03-21T05:40:21.704Z,1.50
2019-03-21T05:42:59.964Z,1.51
2019-03-21T05:45:31.399Z,1.50
2019-03-21T05:48:02.792Z,1.31
2019-03-21T05:50:34.187Z,1.35
2019-03-21T05:53:05.650Z,1.40
2019-03-21T05:55:37.064Z,1.33
2019-03-21T05:58:08.740Z,1.31
2019-03-21T06:00:42.511Z,1.32
2019-03-21T06:03:19.736Z,1.36
2019-03-21T06:05:57.655Z,1.41
2019-03-21T06:08:37.600Z,1.37
2019-03-21T06:11:09.050Z,1.34
2019-03-21T06:13:40.474Z,1.41
2019-03-21T06:16:12.921Z,1.42
2019-03-21T06:19:17.545Z,1.47
2019-03-21T06:22:40.160Z,1.49
2019-03-21T06:25:58.725Z,1.46
2019-03-21T06:28:35.105Z,1.41
2019-03-21T06:31:08.565Z,1.48
2019-03-21T06:33:39.824Z,1.52
2019-03-21T06:36:11.537Z,1.57
2019-03-21T06:38:42.963Z,1.60
2019-03-21T06:41:14.428Z,1.61
2019-03-21T06:43:46.349Z,1.66
2019-03-21T06:46:17.921Z,1.62
2019-03-21T06:48:49.619Z,1.68
2019-03-21T06:51:21.114Z,1.74
2019-03-21T06:53:52.665Z,1.65
2019-03-21T06:56:24.151Z,1.71
2019-03-21T06:58:55.823Z,1.81
2019-03-21T07:01:27.595Z,1.84
2019-03-21T07:04:07.076Z,1.79
2019-03-21T07:06:32.526Z,1.72
2019-03-21T07:09:05.973Z,1.75
2019-03-21T07:11:37.494Z,1.79
2019-03-21T07:14:09.237Z,1.83
2019-03-21T07:16:40.690Z,1.86
2019-03-21T07:19:12.297Z,1.93
2019-03-21T07:21:43.737Z,2.03
2019-03-21T07:24:17.117Z,2.07
2019-03-21T07:26:48.463Z,2.12
2019-03-21T07:29:19.987Z,2.16
2019-03-21T07:31:51.378Z,2.25
2019-03-21T07:34:22.837Z,2.26
2019-03-21T07:36:57.429Z,2.31
2019-03-21T07:39:28.930Z,2.42
2019-03-21T07:42:01.391Z,2.46
2019-03-21T07:44:33.070Z,2.52
2019-03-21T07:47:12.813Z,2.58
2019-03-21T07:49:40.353Z,2.68
2019-03-21T07:52:11.769Z,2.71
2019-03-21T07:54:43.222Z,2.79
2019-03-21T07:57:14.638Z,2.84
2019-03-21T07:59:46.000Z,2.93
2019-03-21T08:02:17.409Z,3.03
2019-03-21T08:04:50.152Z,3.11
2019-03-21T08:07:21.585Z,3.19
2019-03-21T08:09:52.987Z,3.28
2019-03-21T08:12:24.438Z,3.30
2019-03-21T08:14:57.480Z,3.38
2019-03-21T08:17:30.668Z,3.46
2019-03-21T08:20:02.134Z,3.57
2019-03-21T08:22:33.501Z,3.65
2019-03-21T08:25:05.193Z,3.72
2019-03-21T08:27:39.102Z,3.80
2019-03-21T08:30:17.480Z,3.83
2019-03-21T08:32:49.515Z,3.93
2019-03-21T08:35:20.940Z,4.00
2019-03-21T08:37:52.321Z,4.08
2019-03-21T08:40:23.744Z,4.17
2019-03-21T08:42:55.150Z,4.25
2019-03-21T08:45:28.355Z,4.33
2019-03-21T08:47:59.741Z,4.42
2019-03-21T08:50:31.122Z,4.54
2019-03-21T08:53:02.512Z,4.64
2019-03-21T08:55:33.944Z,4.72
2019-03-21T08:58:05.282Z,4.84
2019-03-21T09:00:36.734Z,4.92
2019-03-21T09:03:08.102Z,5.00
2019-03-21T09:05:39.546Z,5.31
2019-03-21T09:08:10.926Z,5.50
2019-03-21T09:10:42.385Z,5.68
2019-03-21T09:13:13.791Z,5.82
2019-03-21T09:15:45.204Z,5.94
2019-03-21T09:18:16.608Z,6.09
2019-03-21T09:20:48.017Z,6.24
2019-03-21T09:23:19.478Z,6.30
2019-03-21T09:25:53.264Z,6.43
2019-03-21T09:28:24.621Z,6.51
2019-03-21T09:30:56.636Z,6.57
2019-03-21T09:33:28.300Z,6.68
2019-03-21T09:35:59.780Z,6.81
2019-03-21T09:38:33.034Z,6.87
2019-03-21T09:41:04.473Z,6.96
2019-03-21T09:43:35.947Z,7.02
2019-03-21T09:46:07.428Z,7.14
2019-03-21T09:48:41.821Z,7.22
2019-03-21T09:51:13.221Z,7.33
2019-03-21T09:53:47.607Z,7.50
2019-03-21T09:56:19.083Z,7.67
2019-03-21T09:58:50.435Z,7.83
2019-03-21T10:01:21.835Z,7.93
2019-03-21T10:03:53.242Z,8.03
2019-03-21T10:06:26.411Z,8.22
2019-03-21T10:08:57.782Z,8.30
2019-03-21T10:11:30.977Z,8.48
2019-03-21T10:14:02.337Z,8.57
2019-03-21T10:16:33.768Z,8.70
2019-03-21T10:19:05.245Z,8.80
2019-03-21T10:21:43.402Z,8.87
2019-03-21T10:24:09.794Z,8.94
2019-03-21T10:26:41.294Z,8.96
2019-03-21T10:29:12.661Z,9.00
2019-03-21T10:31:44.161Z,9.04
2019-03-21T10:34:17.012Z,9.08
2019-03-21T10:36:48.439Z,9.14
2019-03-21T10:39:19.810Z,9.25
2019-03-21T10:41:51.278Z,9.32
2019-03-21T10:44:22.745Z,9.35
2019-03-21T10:46:54.166Z,9.42
2019-03-21T10:49:25.520Z,9.44
2019-03-21T10:51:56.977Z,9.54
2019-03-21T10:54:31.095Z,9.64
2019-03-21T10:57:05.264Z,9.65
2019-03-21T10:59:36.620Z,9.71
2019-03-21T11:02:08.006Z,9.73
2019-03-21T11:04:39.405Z,9.85
2019-03-21T11:07:08.033Z,9.94
2019-03-21T11:09:39.446Z,10.01
2019-03-21T11:12:10.841Z,10.02
2019-03-21T11:14:42.197Z,10.06
2019-03-21T11:17:13.639Z,10.11
2019-03-21T11:19:45.059Z,10.13
2019-03-21T11:22:16.525Z,10.20
2019-03-21T11:24:48.893Z,10.23
2019-03-21T11:27:20.352Z,10.26
2019-03-21T11:29:51.735Z,10.28
2019-03-21T11:32:23.172Z,10.34
2019-03-21T11:34:56.352Z,10.50
2019-03-21T11:37:28.999Z,10.65
2019-03-21T11:40:00.418Z,10.70
2019-03-21T11:42:31.864Z,10.71
2019-03-21T11:45:03.283Z,10.77
2019-03-21T11:47:41.828Z,10.77
2019-03-21T11:50:08.127Z,10.77
2019-03-21T11:52:41.056Z,10.79
2019-03-21T11:55:13.589Z,10.84
2019-03-21T11:57:45.032Z,10.92
2019-03-21T12:00:17.591Z,11.05
2019-03-21T12:02:49.047Z,11.20
2019-03-21T12:05:20.463Z,11.16
2019-03-21T12:07:51.865Z,11.11
2019-03-21T12:10:23.256Z,11.16
2019-03-21T12:12:54.721Z,11.22
2019-03-21T12:15:26.097Z,11.23
2019-03-21T12:17:57.560Z,11.31
2019-03-21T12:20:37.967Z,11.32
2019-03-21T12:23:09.427Z,11.32
2019-03-21T12:25:40.770Z,11.47
2019-03-21T12:28:12.232Z,11.53
2019-03-21T12:30:44.801Z,11.47
2019-03-21T12:33:16.270Z,11.49
2019-03-21T12:35:50.609Z,11.54
2019-03-21T12:38:21.999Z,11.58
2019-03-21T12:40:53.400Z,11.65
2019-03-21T12:43:24.853Z,11.69
2019-03-21T12:45:56.219Z,11.69
2019-03-21T12:48:27.661Z,11.74
2019-03-21T12:50:58.978Z,11.74
2019-03-21T12:53:30.468Z,11.75
2019-03-21T12:56:01.829Z,11.77
2019-03-21T12:58:33.286Z,11.96
2019-03-21T13:01:04.636Z,12.01
2019-03-21T13:03:36.151Z,11.98
2019-03-21T13:06:09.335Z,12.03
2019-03-21T13:08:40.779Z,12.01
2019-03-21T13:11:14.033Z,12.13
2019-03-21T13:13:45.440Z,12.15
2019-03-21T13:16:16.819Z,12.19
2019-03-21T13:18:48.244Z,12.22
2019-03-21T13:21:19.613Z,12.18
2019-03-21T13:23:51.124Z,12.17
2019-03-21T13:26:23.959Z,12.23
2019-03-21T13:28:55.418Z,12.29
2019-03-21T13:31:26.788Z,12.37
2019-03-21T13:33:58.251Z,12.39
2019-03-21T13:36:29.601Z,12.41
2019-03-21T13:39:01.035Z,12.46
2019-03-21T13:41:35.195Z,12.49
2019-03-21T13:44:06.583Z,12.57
2019-03-21T13:46:38.042Z,12.63
2019-03-21T13:49:10.695Z,12.69
2019-03-21T13:51:45.065Z,12.71
2019-03-21T13:54:16.473Z,12.75
2019-03-21T13:56:47.847Z,12.81
2019-03-21T13:59:19.333Z,12.84
2019-03-21T14:01:52.280Z,12.94
2019-03-21T14:04:23.669Z,13.14
2019-03-21T14:06:55.069Z,13.36
2019-03-21T14:09:26.496Z,13.76
2019-03-21T14:11:57.913Z,14.32
2019-03-21T14:14:29.384Z,14.74
2019-03-21T14:17:00.774Z,15.08
2019-03-21T14:19:32.260Z,15.41
2019-03-21T14:22:03.643Z,15.37
2019-03-21T14:24:35.819Z,15.24
2019-03-21T14:27:07.423Z,15.23
2019-03-21T14:29:38.922Z,15.18
2019-03-21T14:32:10.342Z,15.12
2019-03-21T14:34:41.942Z,15.16
2019-03-21T14:37:13.349Z,15.16
2019-03-21T14:39:44.776Z,15.13
2019-03-21T14:42:16.240Z,15.14
2019-03-21T14:44:47.629Z,15.13
2019-03-21T14:47:19.121Z,15.18
2019-03-21T14:49:53.020Z,15.16
2019-03-21T14:52:23.627Z,15.18
2019-03-21T14:54:55.116Z,15.22
2019-03-21T14:57:26.497Z,15.27
2019-03-21T14:59:57.985Z,15.29
2019-03-21T15:02:29.394Z,15.33
2019-03-21T15:05:00.798Z,15.36
2019-03-21T15:07:32.214Z,15.41
2019-03-21T15:10:03.657Z,15.42
2019-03-21T15:12:35.041Z,15.42
2019-03-21T15:15:08.901Z,15.49
2019-03-21T15:17:40.279Z,15.53
2019-03-21T15:20:14.195Z,15.52
2019-03-21T15:22:45.866Z,15.54
2019-03-21T15:25:17.273Z,15.58
2019-03-21T15:27:51.712Z,15.59
2019-03-21T15:30:23.313Z,15.64
2019-03-21T15:32:54.798Z,15.65
2019-03-21T15:35:26.225Z,15.70
2019-03-21T15:37:57.633Z,15.71
2019-03-21T15:40:29.051Z,15.71
2019-03-21T15:43:00.456Z,15.74
2019-03-21T15:45:31.920Z,15.76
2019-03-21T15:48:03.357Z,15.83
2019-03-21T15:50:38.651Z,15.85
2019-03-21T15:53:10.789Z,15.87
2019-03-21T15:55:42.296Z,15.95
2019-03-21T15:58:13.755Z,15.97
2019-03-21T16:00:45.322Z,15.95
2019-03-21T16:03:16.713Z,15.91
2019-03-21T16:05:48.156Z,15.87
2019-03-21T16:08:19.623Z,15.88
2019-03-21T16:10:51.032Z,15.96
2019-03-21T16:13:22.348Z,15.96
2019-03-21T16:15:56.157Z,15.90
2019-03-21T16:18:27.568Z,15.88
2019-03-21T16:20:59.044Z,15.80
2019-03-21T16:23:30.426Z,15.76
2019-03-21T16:26:01.870Z,15.74
2019-03-21T16:28:33.298Z,15.68
2019-03-21T16:31:04.751Z,15.64
2019-03-21T16:33:36.158Z,15.54
2019-03-21T16:36:07.568Z,15.50
2019-03-21T16:38:38.925Z,15.41
2019-03-21T16:41:10.414Z,15.25
2019-03-21T16:43:41.849Z,15.20
2019-03-21T16:46:13.323Z,15.15
2019-03-21T16:48:44.691Z,15.08
2019-03-21T16:51:16.202Z,14.99
2019-03-21T16:53:47.615Z,14.89
2019-03-21T16:56:19.102Z,14.84
2019-03-21T16:58:50.528Z,14.66
2019-03-21T17:01:21.993Z,14.58
2019-03-21T17:03:53.419Z,14.43
2019-03-21T17:06:24.870Z,14.28
2019-03-21T17:08:56.344Z,14.16
2019-03-21T17:11:27.789Z,13.98
2019-03-21T17:13:59.180Z,13.83
2019-03-21T17:16:30.617Z,13.68
2019-03-21T17:19:02.127Z,13.51
2019-03-21T17:21:33.648Z,13.47
2019-03-21T17:24:05.082Z,13.46
2019-03-21T17:26:36.468Z,13.35
2019-03-21T17:29:07.884Z,13.26
2019-03-21T17:31:39.316Z,13.23
2019-03-21T17:34:10.676Z,13.16
2019-03-21T17:36:42.524Z,13.11
2019-03-21T17:39:13.895Z,13.04
2019-03-21T17:41:45.365Z,12.87
2019-03-21T17:44:19.756Z,12.79
2019-03-21T17:46:51.234Z,12.67
2019-03-21T17:49:24.389Z,12.62
2019-03-21T17:51:57.587Z,12.53
2019-03-21T17:54:40.687Z,12.41
2019-03-21T17:57:02.204Z,12.34
2019-03-21T17:59:33.571Z,12.23
2019-03-21T18:02:05.017Z,12.14
2019-03-21T18:04:36.569Z,12.11
2019-03-21T18:07:08.027Z,12.07
2019-03-21T18:09:39.436Z,11.99
2019-03-21T18:12:16.178Z,11.80
2019-03-21T18:14:52.258Z,11.77
2019-03-21T18:17:23.714Z,11.69
2019-03-21T18:19:55.126Z,11.59
2019-03-21T18:22:26.524Z,11.48
2019-03-21T18:24:59.387Z,11.42
2019-03-21T18:27:30.841Z,11.32
2019-03-21T18:30:02.419Z,11.24
2019-03-21T18:32:35.260Z,11.14
2019-03-21T18:35:09.142Z,11.13
2019-03-21T18:37:40.558Z,10.97
2019-03-21T18:40:12.186Z,10.90
2019-03-21T18:42:43.634Z,10.80
2019-03-21T18:45:16.083Z,10.76
2019-03-21T18:47:48.151Z,10.63
2019-03-21T18:50:19.691Z,10.57
2019-03-21T18:52:51.132Z,10.53
2019-03-21T18:55:22.565Z,10.43
2019-03-21T18:57:53.971Z,10.36
2019-03-21T19:00:28.140Z,10.28
2019-03-21T19:03:00.755Z,10.16
2019-03-21T19:05:32.235Z,10.12
2019-03-21T19:08:03.738Z,9.95
2019-03-21T19:10:35.078Z,9.93
2019-03-21T19:13:06.506Z,9.89
2019-03-21T19:15:39.051Z,9.83
2019-03-21T19:18:10.487Z,9.82
2019-03-21T19:20:41.911Z,9.77
2019-03-21T19:23:13.363Z,9.67
2019-03-21T19:25:44.718Z,9.57
2019-03-21T19:28:16.227Z,9.48
2019-03-21T19:30:47.564Z,9.41
2019-03-21T19:33:22.081Z,9.34
2019-03-21T19:35:53.507Z,9.31
2019-03-21T19:38:25.000Z,9.28
2019-03-21T19:40:56.400Z,9.24
2019-03-21T19:43:27.765Z,9.10
2019-03-21T19:46:02.434Z,9.07
2019-03-21T19:48:33.808Z,9.05
2019-03-21T19:51:05.326Z,8.98
2019-03-21T19:53:36.720Z,8.94
2019-03-21T19:56:09.002Z,8.89
2019-03-21T19:58:40.458Z,8.76
2019-03-21T20:01:11.920Z,8.72
2019-03-21T20:03:43.307Z,8.67
2019-03-21T20:06:16.788Z,8.66
2019-03-21T20:08:48.182Z,8.62
2019-03-21T20:11:19.591Z,8.54
2019-03-21T20:13:53.088Z,8.49
2019-03-21T20:16:25.723Z,8.34
2019-03-21T20:18:57.097Z,8.24
2019-03-21T20:21:28.528Z,8.19
2019-03-21T20:23:59.927Z,8.05
2019-03-21T20:26:32.605Z,8.04
2019-03-21T20:29:04.008Z,7.89
2019-03-21T20:31:35.456Z,7.81
2019-03-21T20:34:07.923Z,7.76
2019-03-21T20:36:39.387Z,7.68
2019-03-21T20:39:10.823Z,7.64
2019-03-21T20:41:42.364Z,7.51
2019-03-21T20:44:16.103Z,7.43
2019-03-21T20:46:47.583Z,7.37
2019-03-21T20:49:18.980Z,7.32
2019-03-21T20:51:50.445Z,7.27
2019-03-21T20:54:24.025Z,7.31
2019-03-21T20:56:55.431Z,7.23
2019-03-21T20:59:26.831Z,7.17
2019-03-21T21:02:02.777Z,7.18
2019-03-21T21:04:31.353Z,7.07
2019-03-21T21:07:02.770Z,7.09
2019-03-21T21:09:37.054Z,7.04
2019-03-21T21:12:08.424Z,6.94
2019-03-21T21:14:39.792Z,6.89
2019-03-21T21:17:11.365Z,6.83
2019-03-21T21:19:42.712Z,6.79
2019-03-21T21:22:14.092Z,6.68
2019-03-21T21:24:47.888Z,6.66
2019-03-21T21:27:19.311Z,6.68
2019-03-21T21:29:50.745Z,6.72
2019-03-21T21:32:22.147Z,6.67
2019-03-21T21:34:54.780Z,6.59
2019-03-21T21:37:26.262Z,6.51
2019-03-21T21:39:57.697Z,6.44
2019-03-21T21:42:29.107Z,6.43
2019-03-21T21:45:00.478Z,6.45
2019-03-21T21:47:31.879Z,6.38
2019-03-21T21:50:14.853Z,6.30
2019-03-21T21:52:45.985Z,6.32
2019-03-21T21:55:17.552Z,6.21
2019-03-21T21:57:48.900Z,6.23
2019-03-21T22:00:20.496Z,6.21
2019-03-21T22:02:52.036Z,6.15
2019-03-21T22:05:23.719Z,6.07
2019-03-21T22:07:55.130Z,6.01
2019-03-21T22:10:29.335Z,5.98
2019-03-21T22:12:59.683Z,5.99
2019-03-21T22:15:31.119Z,5.85
2019-03-21T22:18:06.332Z,5.86
2019-03-21T22:20:37.739Z,5.81
2019-03-21T22:23:09.142Z,5.76
2019-03-21T22:25:40.532Z,5.72
2019-03-21T22:28:12.012Z,5.68
2019-03-21T22:30:43.431Z,5.64
2019-03-21T22:33:14.908Z,5.64
2019-03-21T22:35:47.418Z,5.47
2019-03-21T22:38:18.743Z,5.44
2019-03-21T22:40:50.202Z,5.46
2019-03-21T22:43:21.578Z,5.43
2019-03-21T22:45:53.055Z,5.42
2019-03-21T22:48:24.404Z,5.40
2019-03-21T22:50:55.843Z,5.40
2019-03-21T22:53:27.226Z,5.28
2019-03-21T22:55:58.676Z,5.30
2019-03-21T22:58:31.898Z,5.24
2019-03-21T23:01:03.456Z,5.19
2019-03-21T23:03:34.851Z,5.13
2019-03-21T23:06:06.446Z,5.21
2019-03-21T23:08:37.871Z,5.22
2019-03-21T23:11:10.420Z,5.12
2019-03-21T23:13:41.827Z,5.12
2019-03-21T23:16:13.306Z,5.08
2019-03-21T23:18:47.428Z,5.00
2019-03-21T23:21:19.893Z,5.03
2019-03-21T23:23:51.311Z,4.98
2019-03-21T23:26:24.020Z,4.93
2019-03-21T23:28:56.610Z,4.89
2019-03-21T23:31:28.041Z,4.89
2019-03-21T23:33:59.448Z,4.84
2019-03-21T23:36:31.039Z,4.77
2019-03-21T23:39:02.403Z,4.67
2019-03-21T23:41:33.891Z,4.64
2019-03-21T23:44:05.287Z,4.67
2019-03-21T23:46:36.705Z,4.68
2019-03-21T23:49:08.109Z,4.50
2019-03-21T23:51:39.550Z,4.47
2019-03-21T23:54:10.931Z,4.48
2019-03-21T23:56:42.364Z,4.49
2019-03-21T23:59:13.790Z,4.47
